createdAt,value
2018-04-18T00:01:12.250Z,34.65
2018-04-18T00:03:50.559Z,34.76
2018-04-18T00:06:29.164Z,34.80
2018-04-18T00:09:09.349Z,34.80
2018-04-18T00:11:48.540Z,34.79
2018-04-18T00:14:28.187Z,34.61
2018-04-18T00:17:08.685Z,34.23
2018-04-18T00:19:47.511Z,34.73
2018-04-18T00:22:26.101Z,34.12
2018-04-18T00:25:07.008Z,34.59
2018-04-18T00:27:46.119Z,34.51
2018-04-18T00:30:24.603Z,34.37
2018-04-18T00:33:08.279Z,34.50
2018-04-18T00:35:46.851Z,34.12
2018-04-18T00:38:25.311Z,33.93
2018-04-18T00:41:07.988Z,33.96
2018-04-18T00:43:47.356Z,33.94
2018-04-18T00:46:25.743Z,33.74
2018-04-18T00:49:06.315Z,34.00
2018-04-18T00:51:45.807Z,33.92
2018-04-18T00:54:26.008Z,33.30
2018-04-18T00:57:06.772Z,33.84
2018-04-18T00:59:45.496Z,33.56
2018-04-18T01:02:24.334Z,33.50
2018-04-18T01:05:03.728Z,33.56
2018-04-18T01:07:42.473Z,33.58
2018-04-18T01:10:20.730Z,33.78
2018-04-18T01:13:00.044Z,33.65
2018-04-18T01:15:38.619Z,33.92
2018-04-18T01:18:17.468Z,34.22
2018-04-18T01:20:56.014Z,33.77
2018-04-18T01:23:34.955Z,34.00
2018-04-18T01:26:13.983Z,33.98
2018-04-18T01:29:00.857Z,34.01
2018-04-18T01:31:41.186Z,33.49
2018-04-18T01:34:20.204Z,33.11
2018-04-18T01:36:59.689Z,33.03
2018-04-18T01:39:38.514Z,32.91
2018-04-18T01:42:17.293Z,33.18
2018-04-18T01:44:57.214Z,33.50
2018-04-18T01:47:35.908Z,33.53
2018-04-18T01:50:14.659Z,33.83
2018-04-18T01:52:56.801Z,33.84
2018-04-18T01:55:35.107Z,33.62
2018-04-18T01:58:14.033Z,33.69
2018-04-18T02:00:54.559Z,33.58
2018-04-18T02:03:33.382Z,33.75
2018-04-18T02:06:12.516Z,33.47
2018-04-18T02:08:51.486Z,33.12
2018-04-18T02:11:30.537Z,32.62
2018-04-18T02:14:16.474Z,33.48
2018-04-18T02:16:54.992Z,33.58
2018-04-18T02:19:33.925Z,33.19
2018-04-18T02:22:13.143Z,33.53
2018-04-18T02:24:51.783Z,33.70
2018-04-18T02:27:30.349Z,34.08
2018-04-18T02:30:09.152Z,33.55
2018-04-18T02:32:48.092Z,33.70
2018-04-18T02:35:27.533Z,33.67
2018-04-18T02:38:10.657Z,34.14
2018-04-18T02:40:49.992Z,33.82
2018-04-18T02:43:29.223Z,34.27
2018-04-18T02:46:07.753Z,33.80
2018-04-18T02:48:47.303Z,34.55
2018-04-18T02:51:27.725Z,34.11
2018-04-18T02:54:07.144Z,33.69
2018-04-18T02:56:45.586Z,34.10
2018-04-18T02:59:26.437Z,33.79
2018-04-18T03:02:06.302Z,33.62
2018-04-18T03:04:44.749Z,34.06
2018-04-18T03:07:27.110Z,34.24
2018-04-18T03:10:07.185Z,34.03
2018-04-18T03:12:45.652Z,33.43
2018-04-18T03:15:28.683Z,33.57
2018-04-18T03:18:07.215Z,32.88
2018-04-18T03:20:46.779Z,32.96
2018-04-18T03:23:28.279Z,33.63
2018-04-18T03:26:08.443Z,34.06
2018-04-18T03:28:46.946Z,34.44
2018-04-18T03:31:27.150Z,34.08
2018-04-18T03:34:05.907Z,33.69
2018-04-18T03:36:44.507Z,33.59
2018-04-18T03:39:24.426Z,33.71
2018-04-18T03:42:03.699Z,33.13
2018-04-18T03:44:42.459Z,33.29
2018-04-18T03:47:24.486Z,33.52
2018-04-18T03:50:04.679Z,33.29
2018-04-18T03:52:43.294Z,33.16
2018-04-18T03:55:22.114Z,32.98
2018-04-18T03:58:00.789Z,32.65
2018-04-18T04:00:39.977Z,32.69
2018-04-18T04:03:23.715Z,32.84
2018-04-18T04:06:03.071Z,32.65
2018-04-18T04:08:43.954Z,32.63
2018-04-18T04:11:22.686Z,32.23
2018-04-18T04:14:01.195Z,32.47
2018-04-18T04:17:54.463Z,32.73
2018-04-18T04:23:46.296Z,33.30
2018-04-18T04:26:25.726Z,33.03
2018-04-18T04:29:04.378Z,33.00
2018-04-18T04:31:44.112Z,31.50
2018-04-18T04:34:22.632Z,31.12
2018-04-18T04:37:01.025Z,30.64
2018-04-18T04:39:42.945Z,31.11
2018-04-18T04:42:21.190Z,31.49
2018-04-18T04:45:00.796Z,31.44
2018-04-18T04:47:41.212Z,31.61
2018-04-18T04:50:19.794Z,31.92
2018-04-18T04:52:58.480Z,32.28
2018-04-18T04:55:41.914Z,31.63
2018-04-18T04:58:20.312Z,31.85
2018-04-18T05:00:59.247Z,32.07
2018-04-18T05:03:41.278Z,32.16
2018-04-18T05:06:19.592Z,31.58
2018-04-18T05:10:01.402Z,31.44
2018-04-18T05:12:41.154Z,31.64
2018-04-18T05:15:20.385Z,31.73
2018-04-18T05:18:01.424Z,31.89
2018-04-18T05:20:39.901Z,32.54
2018-04-18T05:23:20.594Z,32.59
2018-04-18T05:26:01.709Z,31.62
2018-04-18T05:28:42.049Z,32.10
2018-04-18T05:31:22.495Z,32.72
2018-04-18T05:34:01.633Z,32.58
2018-04-18T05:36:43.229Z,32.62
2018-04-18T05:39:21.196Z,32.35
2018-04-18T05:42:00.801Z,32.23
2018-04-18T05:44:40.248Z,32.42
2018-04-18T05:47:18.996Z,33.29
2018-04-18T05:49:58.325Z,33.59
2018-04-18T06:05:36.512Z,32.58
2018-04-18T06:08:21.084Z,33.37
2018-04-18T06:10:59.314Z,33.57
2018-04-18T06:13:40.856Z,32.84
2018-04-18T06:16:25.225Z,33.94
2018-04-18T06:19:06.862Z,33.98
2018-04-18T06:21:51.165Z,33.86
2018-04-18T06:24:29.793Z,33.59
2018-04-18T06:27:14.973Z,33.33
2018-04-18T06:29:53.458Z,33.69
2018-04-18T06:32:31.823Z,33.68
2018-04-18T06:35:12.747Z,33.55
2018-04-18T06:37:52.232Z,34.11
2018-04-18T06:40:32.390Z,34.29
2018-04-18T06:43:11.657Z,34.43
2018-04-18T06:45:50.182Z,35.36
2018-04-18T06:48:31.390Z,35.32
2018-04-18T06:51:14.756Z,35.45
2018-04-18T06:53:53.659Z,36.09
2018-04-18T06:56:34.817Z,36.17
2018-04-18T06:59:14.141Z,35.66
2018-04-18T07:01:52.300Z,36.06
2018-04-18T07:04:33.290Z,36.51
2018-04-18T07:07:12.368Z,36.65
2018-04-18T07:09:55.794Z,36.75
2018-04-18T07:12:33.759Z,37.09
2018-04-18T07:15:13.097Z,37.86
2018-04-18T07:17:55.340Z,38.27
2018-04-18T07:20:34.259Z,37.65
2018-04-18T07:23:14.564Z,37.16
2018-04-18T07:25:57.290Z,38.19
2018-04-18T07:28:35.687Z,38.44
2018-04-18T07:31:21.979Z,37.87
2018-04-18T07:34:00.156Z,38.91
2018-04-18T07:36:39.366Z,38.13
2018-04-18T07:39:19.475Z,38.17
2018-04-18T07:41:57.432Z,39.20
2018-04-18T07:44:37.949Z,39.24
2018-04-18T07:47:17.403Z,39.81
2018-04-18T07:49:57.834Z,40.15
2018-04-18T07:52:37.801Z,39.70
2018-04-18T07:55:20.530Z,40.66
2018-04-18T07:58:00.034Z,39.43
2018-04-18T08:00:45.631Z,40.07
2018-04-18T08:03:25.326Z,40.28
2018-04-18T08:06:03.697Z,39.70
2018-04-18T08:08:44.260Z,40.47
2018-04-18T08:11:23.266Z,41.16
2018-04-18T08:14:01.494Z,41.99
2018-04-18T08:16:43.326Z,41.77
2018-04-18T08:19:21.513Z,41.55
2018-04-18T08:22:02.090Z,41.87
2018-04-18T08:24:42.684Z,41.85
2018-04-18T08:27:21.916Z,41.60
2018-04-18T08:30:06.323Z,42.09
2018-04-18T08:32:44.780Z,42.14
2018-04-18T08:35:24.344Z,42.99
2018-04-18T08:38:06.191Z,43.29
2018-04-18T08:40:44.337Z,43.51
2018-04-18T08:43:28.853Z,42.25
2018-04-18T08:46:07.891Z,43.27
2018-04-18T08:48:46.256Z,42.13
2018-04-18T08:51:27.533Z,43.11
2018-04-18T08:54:05.824Z,43.63
2018-04-18T08:56:45.823Z,43.91
2018-04-18T08:59:28.217Z,44.23
2018-04-18T09:02:07.240Z,44.54
2018-04-18T09:04:47.682Z,44.15
2018-04-18T09:07:27.387Z,44.25
2018-04-18T09:10:07.177Z,44.81
2018-04-18T09:12:50.579Z,44.90
2018-04-18T09:15:31.171Z,45.08
2018-04-18T09:18:10.128Z,44.56
2018-04-18T09:20:53.049Z,44.04
2018-04-18T09:23:32.449Z,44.28
2018-04-18T09:26:11.513Z,44.07
2018-04-18T09:28:54.169Z,42.73
2018-04-18T09:31:32.508Z,43.64
2018-04-18T09:34:10.925Z,44.61
2018-04-18T09:36:54.690Z,44.81
2018-04-18T09:39:33.760Z,44.21
2018-04-18T09:42:27.069Z,44.49
2018-04-18T09:45:08.260Z,44.54
2018-04-18T09:47:54.342Z,44.87
2018-04-18T09:50:33.600Z,44.84
2018-04-18T09:53:20.770Z,43.84
2018-04-18T09:56:01.941Z,43.30
2018-04-18T09:58:40.320Z,43.06
2018-04-18T10:01:30.699Z,44.60
2018-04-18T10:04:12.774Z,44.18
2018-04-18T10:06:59.333Z,43.61
2018-04-18T10:09:39.043Z,44.82
2018-04-18T10:12:17.615Z,43.65
2018-04-18T10:14:59.771Z,44.25
2018-04-18T10:17:39.173Z,44.06
2018-04-18T10:20:17.580Z,44.38
2018-04-18T10:22:56.233Z,44.67
2018-04-18T10:25:36.855Z,44.94
2018-04-18T10:28:17.032Z,44.29
2018-04-18T10:31:00.782Z,44.31
2018-04-18T10:33:40.826Z,44.75
2018-04-18T10:36:23.696Z,44.88
2018-04-18T10:39:04.009Z,44.51
2018-04-18T10:41:43.611Z,44.39
2018-04-18T10:44:24.833Z,43.32
2018-04-18T10:47:11.015Z,42.89
2018-04-18T10:49:57.455Z,44.49
2018-04-18T10:52:40.219Z,44.28
2018-04-18T10:55:24.433Z,44.95
2018-04-18T10:58:03.384Z,44.40
2018-04-18T11:00:41.533Z,44.36
2018-04-18T11:03:24.625Z,44.10
2018-04-18T11:06:02.851Z,44.05
2018-04-18T11:08:41.670Z,44.71
2018-04-18T11:13:58.918Z,43.19
2018-04-18T11:16:41.822Z,42.54
2018-04-18T11:22:08.042Z,42.90
2018-04-18T11:24:46.615Z,43.40
2018-04-18T11:27:29.250Z,44.39
2018-04-18T11:30:08.029Z,45.19
2018-04-18T11:32:46.267Z,45.96
2018-04-18T11:35:28.668Z,44.88
2018-04-18T11:38:07.992Z,44.86
2018-04-18T11:40:47.657Z,45.46
2018-04-18T11:43:32.947Z,45.05
2018-04-18T11:46:12.395Z,45.04
2018-04-18T11:48:50.677Z,44.78
2018-04-18T11:51:34.497Z,44.07
2018-04-18T11:54:27.027Z,44.27
2018-04-18T12:00:03.532Z,45.32
2018-04-18T12:02:55.195Z,46.10
2018-04-18T12:05:33.426Z,45.87
2018-04-18T12:08:13.762Z,42.62
2018-04-18T12:11:09.872Z,43.44
2018-04-18T12:13:49.137Z,44.11
2018-04-18T12:16:34.453Z,44.27
2018-04-18T12:22:16.357Z,44.53
2018-04-18T12:24:54.919Z,45.61
2018-04-18T12:27:33.577Z,46.40
2018-04-18T12:30:18.865Z,46.35
2018-04-18T12:32:59.481Z,46.57
2018-04-18T12:35:37.988Z,45.27
2018-04-18T12:38:19.665Z,45.49
2018-04-18T12:40:58.591Z,44.85
2018-04-18T12:43:37.889Z,45.65
2018-04-18T12:46:21.767Z,46.50
2018-04-18T12:49:01.257Z,46.59
2018-04-18T12:51:42.176Z,45.77
2018-04-18T12:54:36.170Z,45.82
2018-04-18T12:57:15.653Z,46.06
2018-04-18T12:59:57.554Z,45.63
2018-04-18T13:02:36.212Z,45.52
2018-04-18T13:08:03.013Z,44.59
2018-04-18T13:10:42.094Z,44.22
2018-04-18T13:16:19.999Z,45.82
2018-04-18T13:19:00.813Z,44.36
2018-04-18T13:21:49.860Z,44.07
2018-04-18T13:24:38.608Z,44.61
2018-04-18T13:27:18.991Z,44.71
2018-04-18T13:29:58.995Z,45.80
2018-04-18T13:32:39.894Z,46.53
2018-04-18T13:35:20.137Z,46.66
2018-04-18T13:38:04.500Z,47.01
2018-04-18T13:43:44.873Z,46.38
2018-04-18T13:46:24.679Z,46.64
2018-04-18T13:49:06.778Z,46.74
2018-04-18T13:51:45.315Z,46.95
2018-04-18T13:54:30.867Z,46.90
2018-04-18T13:57:20.385Z,46.44
2018-04-18T14:00:09.508Z,46.57
2018-04-18T14:06:00.496Z,46.95
2018-04-18T14:08:44.777Z,46.63
2018-04-18T14:11:24.843Z,46.47
2018-04-18T14:14:11.914Z,45.92
2018-04-18T14:16:50.445Z,46.31
2018-04-18T14:19:32.235Z,45.64
2018-04-18T14:22:10.630Z,46.36
2018-04-18T14:24:51.125Z,46.19
2018-04-18T14:30:38.063Z,46.69
2018-04-18T14:33:23.454Z,45.62
2018-04-18T14:36:15.749Z,46.61
2018-04-18T14:39:08.163Z,47.03
2018-04-18T14:41:48.204Z,46.76
2018-04-18T14:44:32.605Z,46.31
2018-04-18T14:47:14.415Z,46.65
2018-04-18T14:49:52.757Z,46.31
2018-04-18T14:52:34.304Z,46.26
2018-04-18T14:55:15.028Z,46.51
2018-04-18T14:57:53.426Z,46.13
2018-04-18T15:00:43.989Z,45.87
2018-04-18T15:03:29.662Z,45.47
2018-04-18T15:06:17.081Z,46.00
2018-04-18T15:08:56.643Z,46.50
2018-04-18T15:11:35.400Z,46.97
2018-04-18T15:14:16.470Z,46.24
2018-04-18T15:16:56.683Z,46.12
2018-04-18T15:19:36.172Z,46.29
2018-04-18T15:22:16.827Z,45.98
2018-04-18T15:24:56.197Z,45.60
2018-04-18T15:27:34.939Z,46.10
2018-04-18T15:30:17.713Z,46.19
2018-04-18T15:32:56.132Z,46.40
2018-04-18T15:35:34.572Z,46.40
2018-04-18T15:38:15.254Z,46.39
2018-04-18T15:40:56.739Z,46.78
2018-04-18T15:43:37.397Z,46.62
2018-04-18T15:46:19.356Z,46.76
2018-04-18T15:48:58.436Z,46.70
2018-04-18T15:51:39.873Z,47.41
2018-04-18T15:54:18.207Z,46.62
2018-04-18T15:57:02.453Z,47.46
2018-04-18T15:59:40.704Z,47.82
2018-04-18T16:02:19.157Z,48.07
2018-04-18T16:05:01.449Z,46.83
2018-04-18T16:07:39.833Z,46.72
2018-04-18T16:10:20.693Z,47.32
2018-04-18T16:13:18.810Z,47.40
2018-04-18T16:16:01.050Z,47.61
2018-04-18T16:18:42.351Z,47.22
2018-04-18T16:21:24.904Z,47.58
2018-04-18T16:24:03.134Z,47.75
2018-04-18T16:26:41.610Z,46.54
2018-04-18T16:29:36.655Z,47.66
2018-04-18T16:32:17.153Z,49.00
2018-04-18T16:34:57.311Z,51.07
2018-04-18T16:37:38.435Z,51.92
2018-04-18T16:40:17.987Z,52.13
2018-04-18T16:42:57.640Z,52.62
2018-04-18T16:45:39.522Z,53.22
2018-04-18T16:48:19.472Z,54.20
2018-04-18T16:51:00.090Z,54.22
2018-04-18T16:53:41.102Z,54.44
2018-04-18T16:56:20.625Z,54.52
2018-04-18T16:59:03.162Z,54.20
2018-04-18T17:01:45.143Z,54.97
2018-04-18T17:04:23.965Z,55.43
2018-04-18T17:07:05.882Z,55.26
2018-04-18T17:09:43.866Z,55.05
2018-04-18T17:12:23.355Z,54.23
2018-04-18T17:15:05.126Z,53.68
2018-04-18T17:17:45.556Z,54.03
2018-04-18T17:20:25.919Z,53.40
2018-04-18T17:23:06.069Z,53.36
2018-04-18T17:25:46.143Z,52.62
2018-04-18T17:28:29.099Z,51.54
2018-04-18T17:31:07.899Z,50.93
2018-04-18T17:33:48.584Z,49.70
2018-04-18T17:36:28.173Z,48.23
2018-04-18T17:39:08.062Z,48.29
2018-04-18T17:41:48.384Z,48.03
2018-04-18T17:44:27.805Z,47.43
2018-04-18T17:47:09.948Z,47.20
2018-04-18T17:49:50.163Z,46.89
2018-04-18T17:52:30.760Z,46.68
2018-04-18T17:55:10.864Z,46.55
2018-04-18T17:57:52.989Z,46.47
2018-04-18T18:00:34.042Z,46.72
2018-04-18T18:03:12.987Z,46.42
2018-04-18T18:05:53.282Z,46.35
2018-04-18T18:08:49.000Z,45.49
2018-04-18T18:11:35.520Z,43.68
2018-04-18T18:14:19.357Z,43.45
2018-04-18T18:16:58.629Z,44.18
2018-04-18T18:19:37.473Z,44.47
2018-04-18T18:22:19.083Z,44.40
2018-04-18T18:24:57.707Z,44.63
2018-04-18T18:27:37.240Z,44.55
2018-04-18T18:30:19.270Z,44.24
2018-04-18T18:33:04.170Z,43.49
2018-04-18T18:35:42.517Z,43.73
2018-04-18T18:38:22.553Z,43.26
2018-04-18T18:41:02.202Z,43.03
2018-04-18T18:43:42.056Z,42.81
2018-04-18T18:46:23.252Z,42.96
2018-04-18T18:49:02.755Z,42.30
2018-04-18T18:51:44.059Z,41.98
2018-04-18T18:54:24.601Z,42.13
2018-04-18T18:57:09.244Z,41.83
2018-04-18T18:59:54.947Z,41.57
2018-04-18T19:02:42.293Z,41.52
2018-04-18T19:05:23.914Z,41.44
2018-04-18T19:08:06.908Z,41.08
2018-04-18T19:10:48.690Z,41.31
2018-04-18T19:13:29.076Z,41.19
2018-04-18T19:16:19.103Z,40.99
2018-04-18T19:19:02.772Z,40.73
2018-04-18T19:21:43.226Z,40.83
2018-04-18T19:24:23.081Z,40.57
2018-04-18T19:27:05.180Z,40.62
2018-04-18T19:29:45.848Z,40.18
2018-04-18T19:32:27.811Z,40.13
2018-04-18T19:35:08.902Z,40.19
2018-04-18T19:37:49.386Z,39.30
2018-04-18T19:40:29.043Z,39.00
2018-04-18T19:43:11.120Z,39.69
2018-04-18T19:45:50.126Z,39.17
2018-04-18T19:48:30.228Z,39.23
2018-04-18T19:51:11.752Z,39.33
2018-04-18T19:53:50.720Z,39.38
2018-04-18T19:56:31.391Z,39.06
2018-04-18T19:59:13.977Z,38.99
2018-04-18T20:01:54.504Z,38.94
2018-04-18T20:04:33.424Z,39.03
2018-04-18T20:07:12.058Z,38.78
2018-04-18T20:09:56.018Z,38.59
2018-04-18T20:12:37.298Z,37.84
2018-04-18T20:15:24.551Z,37.85
2018-04-18T20:18:06.087Z,38.37
2018-04-18T20:20:46.625Z,38.40
2018-04-18T20:23:30.130Z,38.50
2018-04-18T20:26:09.558Z,38.23
2018-04-18T20:28:52.051Z,38.74
2018-04-18T20:31:30.768Z,38.26
2018-04-18T20:34:17.435Z,38.39
2018-04-18T20:36:55.997Z,37.41
2018-04-18T20:39:38.693Z,37.35
2018-04-18T20:42:18.015Z,37.55
2018-04-18T20:44:56.526Z,37.80
2018-04-18T20:47:39.558Z,37.67
2018-04-18T20:50:17.737Z,37.68
2018-04-18T20:52:56.985Z,37.36
2018-04-18T20:55:36.855Z,37.68
2018-04-18T20:58:16.204Z,37.12
2018-04-18T21:00:56.057Z,37.06
2018-04-18T21:03:36.963Z,37.46
2018-04-18T21:06:15.905Z,37.22
2018-04-18T21:08:55.575Z,37.20
2018-04-18T21:11:38.850Z,37.17
2018-04-18T21:14:17.521Z,37.00
2018-04-18T21:16:56.088Z,36.63
2018-04-18T21:19:37.865Z,36.80
2018-04-18T21:22:16.373Z,36.74
2018-04-18T21:24:58.654Z,36.30
2018-04-18T21:27:37.383Z,36.42
2018-04-18T21:30:17.556Z,36.59
2018-04-18T21:32:57.497Z,36.65
2018-04-18T21:35:35.880Z,36.14
2018-04-18T21:38:19.668Z,36.43
2018-04-18T21:41:03.414Z,36.36
2018-04-18T21:43:41.959Z,36.52
2018-04-18T21:46:22.516Z,36.78
2018-04-18T21:49:01.654Z,36.74
2018-04-18T21:51:40.171Z,36.55
2018-04-18T21:54:19.135Z,36.45
2018-04-18T21:57:02.005Z,36.30
2018-04-18T21:59:41.223Z,36.17
2018-04-18T22:06:05.563Z,35.94
2018-04-18T22:09:11.497Z,35.88
2018-04-18T22:11:50.088Z,36.06
2018-04-18T22:14:45.907Z,35.76
2018-04-18T22:17:30.595Z,35.49
2018-04-18T22:20:09.614Z,35.53
2018-04-18T22:22:48.671Z,35.89
2018-04-18T22:25:27.062Z,36.31
2018-04-18T22:28:06.182Z,35.75
2018-04-18T22:30:47.001Z,35.79
2018-04-18T22:33:26.985Z,35.64
2018-04-18T22:36:06.277Z,35.56
2018-04-18T22:38:48.306Z,35.37
2018-04-18T22:41:27.725Z,35.61
2018-04-18T22:44:07.175Z,35.57
2018-04-18T22:46:45.903Z,35.22
2018-04-18T22:49:24.520Z,35.13
2018-04-18T22:52:04.092Z,35.27
2018-04-18T22:54:45.483Z,34.83
2018-04-18T22:57:24.222Z,35.08
2018-04-18T23:00:03.213Z,35.17
2018-04-18T23:02:42.164Z,35.19
2018-04-18T23:05:20.760Z,34.66
2018-04-18T23:08:00.474Z,34.77
2018-04-18T23:10:39.335Z,35.23
2018-04-18T23:13:22.390Z,34.92
2018-04-18T23:16:07.957Z,34.83
2018-04-18T23:18:46.534Z,34.74
2018-04-18T23:21:25.647Z,34.60
2018-04-18T23:24:04.779Z,34.14
2018-04-18T23:26:44.276Z,34.43
2018-04-18T23:29:23.050Z,34.52
2018-04-18T23:32:01.812Z,34.62
2018-04-18T23:34:40.335Z,34.14
2018-04-18T23:37:18.983Z,34.25
2018-04-18T23:39:57.402Z,34.28
2018-04-18T23:42:36.264Z,34.38
2018-04-18T23:45:15.736Z,34.10
2018-04-18T23:47:56.152Z,34.18
2018-04-18T23:50:34.662Z,34.38
2018-04-18T23:53:13.854Z,33.99
2018-04-18T23:55:56.109Z,33.97
2018-04-18T23:58:36.174Z,34.18
